Time;durP1;ratioP1;P1;durP2;ratioP2;P2;SDS_P1;SDS_P2;PMS_P1;PMS_P2;Temp;Humidity;BMP_temperature;BMP_pressure;BME280_temperature;BME280_humidity;BME280_pressure;Samples;Min_cycle;Max_cycle;Signal;HPM_P1;HPM_P2
2022/08/25 00:02:17;;;;;;;7.17;6.50;;;21.20;99.90;;;;;;6239637;28;20571;-61
2022/08/25 00:05:21;;;;;;;7.13;6.33;;;21.10;99.90;;;;;;6237181;28;20228;-61
2022/08/25 00:08:24;;;;;;;7.70;7.00;;;21.10;99.90;;;;;;6240563;28;20225;-61
2022/08/25 00:11:30;;;;;;;7.73;7.03;;;21.10;99.90;;;;;;6249691;28;20239;-61
2022/08/25 00:14:36;;;;;;;7.27;6.57;;;21.20;99.90;;;;;;6249863;28;20232;-61
2022/08/25 00:17:40;;;;;;;7.80;7.23;;;21.10;99.90;;;;;;6249630;28;20561;-61
2022/08/25 00:20:43;;;;;;;7.37;6.63;;;21.10;99.90;;;;;;6249726;28;20708;-61
2022/08/25 00:23:51;;;;;;;7.40;6.80;;;21.10;99.90;;;;;;6249894;28;20224;-61
2022/08/25 00:26:57;;;;;;;7.50;6.80;;;21.10;99.90;;;;;;6250059;28;20243;-61
2022/08/25 00:30:00;;;;;;;7.90;7.30;;;21.10;99.90;;;;;;6249958;28;20236;-61
2022/08/25 00:33:06;;;;;;;7.20;6.50;;;21.20;99.90;;;;;;6249795;28;20229;-61
2022/08/25 00:36:11;;;;;;;6.90;6.30;;;21.10;99.90;;;;;;6249806;28;20236;-61
2022/08/25 00:39:14;;;;;;;8.47;7.67;;;21.20;99.90;;;;;;6249790;28;20232;-61
2022/08/25 00:42:19;;;;;;;7.50;6.83;;;21.20;99.90;;;;;;6249747;28;20236;-61
2022/08/25 00:45:23;;;;;;;8.27;6.80;;;21.10;99.90;;;;;;6251777;28;20555;-61
2022/08/25 00:48:28;;;;;;;7.10;6.40;;;21.10;99.90;;;;;;6254489;28;20232;-61
2022/08/25 00:51:36;;;;;;;8.27;7.57;;;21.10;99.90;;;;;;6254519;28;20232;-61
2022/08/25 00:54:45;;;;;;;6.80;6.20;;;21.00;99.90;;;;;;6254346;28;20232;-62
2022/08/25 00:57:54;;;;;;;6.90;6.30;;;20.90;99.90;;;;;;6254207;28;20233;-61
2022/08/25 01:00:59;;;;;;;7.63;6.83;;;20.80;99.90;;;;;;6254313;28;20239;-61
2022/08/25 01:04:04;;;;;;;6.13;5.63;;;20.90;99.90;;;;;;6254080;28;20239;-61
2022/08/25 01:07:07;;;;;;;7.50;6.83;;;20.90;99.90;;;;;;6254165;28;20680;-61
2022/08/25 01:10:21;;;;;;;7.73;6.87;;;20.90;99.90;;;;;;6253859;28;20593;-61
2022/08/25 01:13:30;;;;;;;6.90;6.30;;;20.90;99.90;;;;;;6254090;28;20578;-61
2022/08/25 01:16:34;;;;;;;7.90;7.17;;;20.90;99.90;;;;;;6253699;28;20244;-61
2022/08/25 01:19:39;;;;;;;7.70;7.00;;;20.80;99.90;;;;;;6254254;28;20235;-61
2022/08/25 01:22:43;;;;;;;7.20;6.60;;;20.70;99.90;;;;;;6253680;28;20224;-61
2022/08/25 01:25:59;;;;;;;7.00;6.40;;;20.70;99.90;;;;;;6253941;28;20224;-61
2022/08/25 01:29:24;;;;;;;8.77;6.07;;;20.70;99.90;;;;;;6253867;28;20543;-61
2022/08/25 01:32:27;;;;;;;6.93;6.40;;;20.60;99.90;;;;;;6253923;28;20243;-61
2022/08/25 01:35:31;;;;;;;6.80;6.30;;;20.70;99.90;;;;;;6253378;28;20243;-61
2022/08/25 01:38:36;;;;;;;8.03;7.23;;;20.70;99.90;;;;;;6252895;28;20323;-61
2022/08/25 01:41:49;;;;;;;9.23;7.27;;;20.60;99.90;;;;;;6253164;28;20230;-61
2022/08/25 01:44:53;;;;;;;7.43;6.73;;;20.60;99.90;;;;;;6252665;28;20569;-61
2022/08/25 01:47:56;;;;;;;7.20;6.60;;;20.60;99.90;;;;;;6239137;28;20244;-61
2022/08/25 01:50:59;;;;;;;8.73;8.03;;;20.60;99.90;;;;;;6252976;28;20739;-62
2022/08/25 01:54:04;;;;;;;8.50;7.70;;;20.60;99.90;;;;;;6252845;28;20251;-62
2022/08/25 01:57:07;;;;;;;8.43;6.30;;;20.60;99.90;;;;;;6251271;28;20233;-61
2022/08/25 02:00:13;;;;;;;7.53;6.97;;;20.60;99.90;;;;;;6252702;28;20363;-61
2022/08/25 02:03:17;;;;;;;8.10;7.00;;;20.60;99.90;;;;;;6252990;28;20232;-62
2022/08/25 02:06:25;;;;;;;7.30;6.70;;;20.60;99.90;;;;;;6252387;28;20232;-62
2022/08/25 02:09:33;;;;;;;7.87;7.07;;;20.60;99.90;;;;;;6252384;28;20233;-62
2022/08/25 02:12:36;;;;;;;7.10;6.40;;;20.60;99.90;;;;;;6252583;28;20236;-62
2022/08/25 02:15:41;;;;;;;8.00;7.00;;;20.50;99.90;;;;;;6252266;28;20239;-61
2022/08/25 02:18:45;;;;;;;6.50;6.00;;;20.50;99.90;;;;;;6252437;28;20236;-61
2022/08/25 02:21:48;;;;;;;7.00;6.30;;;20.60;99.90;;;;;;6252436;28;20236;-61
2022/08/25 02:24:53;;;;;;;6.77;6.27;;;20.60;99.90;;;;;;6251864;28;20244;-62
2022/08/25 02:27:56;;;;;;;6.60;6.00;;;20.60;99.90;;;;;;6252114;28;20228;-61
2022/08/25 02:30:59;;;;;;;7.27;6.57;;;20.60;99.90;;;;;;6252012;28;20294;-61
2022/08/25 02:34:05;;;;;;;8.20;6.43;;;20.60;99.90;;;;;;6251875;28;20228;-61
2022/08/25 02:37:08;;;;;;;7.47;6.83;;;20.60;99.90;;;;;;6251291;28;20236;-61
2022/08/25 02:40:13;;;;;;;6.83;6.23;;;20.60;99.90;;;;;;6252174;28;20204;-61
2022/08/25 02:43:16;;;;;;;7.27;6.67;;;20.60;99.90;;;;;;6251934;28;20270;-61
2022/08/25 02:46:21;;;;;;;7.70;7.10;;;20.70;99.90;;;;;;6251678;28;20235;-61
2022/08/25 02:49:24;;;;;;;8.60;7.60;;;20.70;99.90;;;;;;6251489;28;20205;-61
2022/08/25 02:52:27;;;;;;;7.67;6.97;;;20.70;99.90;;;;;;6251644;28;20554;-61
2022/08/25 02:55:32;;;;;;;6.60;6.10;;;20.70;99.90;;;;;;6250882;28;20255;-61
2022/08/25 02:58:37;;;;;;;7.77;7.10;;;20.70;99.90;;;;;;6250920;28;20301;-61
2022/08/25 03:01:40;;;;;;;7.00;6.50;;;20.60;99.90;;;;;;6251198;28;20224;-61
2022/08/25 03:04:43;;;;;;;8.20;7.50;;;20.60;99.90;;;;;;6251118;28;20239;-62
2022/08/25 03:07:47;;;;;;;9.00;8.10;;;20.60;99.90;;;;;;6250648;28;20239;-61
2022/08/25 03:10:52;;;;;;;8.13;7.33;;;20.60;99.90;;;;;;6251345;28;20237;-62
2022/08/25 03:13:55;;;;;;;8.23;7.43;;;20.60;99.90;;;;;;6251767;28;20224;-62
2022/08/25 03:16:58;;;;;;;9.00;6.70;;;20.60;99.90;;;;;;6251179;28;20286;-62
2022/08/25 03:20:01;;;;;;;7.53;6.63;;;20.60;99.90;;;;;;6250852;28;20224;-61
2022/08/25 03:23:06;;;;;;;7.30;6.60;;;20.60;99.90;;;;;;6250764;28;20235;-61
2022/08/25 03:29:32;;;;;;;7.13;6.60;;;20.60;99.90;;;;;;6250784;28;20232;-62
2022/08/25 03:32:35;;;;;;;7.23;6.63;;;20.60;99.90;;;;;;6250599;28;20684;-61
2022/08/25 03:35:38;;;;;;;7.60;6.90;;;20.60;99.90;;;;;;6250504;28;20700;-62
2022/08/25 03:38:42;;;;;;;8.20;7.50;;;20.60;99.90;;;;;;6250336;28;20243;-61
2022/08/25 03:41:47;;;;;;;7.37;6.77;;;20.60;99.90;;;;;;6251106;28;20694;-61
2022/08/25 03:44:50;;;;;;;7.60;7.00;;;20.60;99.90;;;;;;6250175;28;20229;-61
2022/08/25 03:47:53;;;;;;;7.83;6.83;;;20.60;99.90;;;;;;6250526;28;20235;-61
2022/08/25 03:50:56;;;;;;;7.63;6.93;;;20.60;99.90;;;;;;6250156;28;20228;-62
2022/08/25 03:54:00;;;;;;;9.17;7.07;;;20.60;99.90;;;;;;6250116;28;20229;-62
2022/08/25 03:57:05;;;;;;;7.10;6.40;;;20.60;99.90;;;;;;6250195;28;20236;-62
2022/08/25 04:00:11;;;;;;;7.33;6.60;;;20.60;99.90;;;;;;6249856;28;20259;-62
2022/08/25 04:03:14;;;;;;;13.53;6.83;;;20.60;99.90;;;;;;6250172;28;20310;-62
2022/08/25 04:06:18;;;;;;;7.87;7.07;;;20.60;99.90;;;;;;6250045;28;20245;-62
2022/08/25 04:09:22;;;;;;;8.03;7.30;;;20.50;99.90;;;;;;6249907;28;20677;-62
2022/08/25 04:12:26;;;;;;;8.10;7.30;;;20.50;99.90;;;;;;6249893;28;20598;-61
2022/08/25 04:15:29;;;;;;;14.13;8.10;;;20.60;99.90;;;;;;6249681;28;20224;-61
2022/08/25 04:18:33;;;;;;;7.37;6.60;;;20.60;99.90;;;;;;6249881;28;20243;-61
2022/08/25 04:21:37;;;;;;;8.53;7.80;;;20.60;99.90;;;;;;6254445;28;20596;-61
2022/08/25 04:24:40;;;;;;;7.27;6.57;;;20.60;99.90;;;;;;6254982;28;20232;-62
2022/08/25 04:27:45;;;;;;;8.20;7.40;;;20.60;99.90;;;;;;6255070;28;20594;-61
2022/08/25 04:30:48;;;;;;;8.60;6.87;;;20.70;99.90;;;;;;6254496;28;20232;-61
2022/08/25 04:33:54;;;;;;;7.30;6.70;;;20.70;99.90;;;;;;6254786;28;20254;-61
2022/08/25 04:36:58;;;;;;;9.47;7.27;;;20.70;99.90;;;;;;6254179;28;20696;-61
2022/08/25 04:40:02;;;;;;;8.67;6.80;;;20.70;99.90;;;;;;6254532;28;20273;-62
2022/08/25 04:43:07;;;;;;;8.47;6.63;;;20.80;99.90;;;;;;6254513;28;20227;-61
2022/08/25 04:46:13;;;;;;;7.70;7.00;;;20.80;99.90;;;;;;6254712;28;20221;-61
2022/08/25 04:49:22;;;;;;;8.03;7.23;;;20.90;99.90;;;;;;6254729;28;20252;-61
2022/08/25 04:52:25;;;;;;;7.87;7.07;;;20.90;99.90;;;;;;6254936;28;20204;-61
2022/08/25 04:55:28;;;;;;;8.03;6.77;;;20.90;99.90;;;;;;6249374;28;20570;-61
2022/08/25 04:58:33;;;;;;;8.03;7.23;;;21.00;99.90;;;;;;6254656;28;20228;-61
2022/08/25 05:01:37;;;;;;;8.83;7.97;;;21.10;99.90;;;;;;6253846;28;20665;-61
2022/08/25 05:04:40;;;;;;;7.10;6.47;;;21.10;99.90;;;;;;6254142;28;20232;-61
2022/08/25 05:07:43;;;;;;;7.53;6.57;;;21.10;99.90;;;;;;6254353;28;20239;-61
2022/08/25 05:10:46;;;;;;;7.97;6.77;;;21.20;99.90;;;;;;6253871;28;20309;-61
2022/08/25 05:13:52;;;;;;;8.67;7.10;;;21.20;99.90;;;;;;6254058;28;20228;-61
2022/08/25 05:16:56;;;;;;;7.17;6.47;;;21.30;99.90;;;;;;6253550;28;20236;-62
2022/08/25 05:19:59;;;;;;;8.70;6.73;;;21.30;99.90;;;;;;6253956;28;20228;-62
2022/08/25 05:23:02;;;;;;;8.53;7.73;;;21.40;99.90;;;;;;6253406;28;20240;-62
2022/08/25 05:26:07;;;;;;;8.17;7.47;;;21.50;99.90;;;;;;6253841;28;20243;-62
2022/08/25 05:29:13;;;;;;;9.13;7.50;;;21.50;99.90;;;;;;6253556;28;20303;-61
2022/08/25 05:32:16;;;;;;;6.60;5.87;;;21.60;99.90;;;;;;6252807;28;20657;-61
2022/08/25 05:35:20;;;;;;;8.70;7.43;;;21.60;99.90;;;;;;6253026;28;20232;-62
2022/08/25 05:38:23;;;;;;;10.13;7.50;;;21.70;99.90;;;;;;6253077;28;20232;-61
2022/08/25 05:41:29;;;;;;;7.80;7.10;;;21.80;99.90;;;;;;6253332;28;20228;-61
2022/08/25 05:44:33;;;;;;;8.27;7.50;;;21.90;99.90;;;;;;6253034;28;20229;-62
2022/08/25 05:47:36;;;;;;;10.90;7.73;;;22.10;99.90;;;;;;6253565;28;20265;-61
2022/08/25 05:50:40;;;;;;;7.70;6.77;;;22.20;99.90;;;;;;6252957;28;20228;-61
2022/08/25 05:53:45;;;;;;;7.73;7.03;;;22.40;99.90;;;;;;6252975;28;20228;-61
2022/08/25 05:56:48;;;;;;;8.30;7.50;;;22.60;99.90;;;;;;6252735;28;20237;-62
2022/08/25 05:59:53;;;;;;;7.83;7.10;;;23.00;99.90;;;;;;6253123;28;20228;-62
2022/08/25 06:02:56;;;;;;;8.30;7.60;;;23.60;99.90;;;;;;6252712;28;20696;-62
2022/08/25 06:06:06;;;;;;;8.80;7.00;;;23.90;99.90;;;;;;6252475;28;20244;-61
2022/08/25 06:09:09;;;;;;;8.57;7.23;;;24.00;99.90;;;;;;6252335;28;20233;-62
2022/08/25 06:12:13;;;;;;;8.03;7.23;;;24.10;99.90;;;;;;6252758;28;20519;-62
2022/08/25 06:15:20;;;;;;;8.50;7.20;;;24.30;99.90;;;;;;6252290;28;20698;-62
2022/08/25 06:18:23;;;;;;;7.97;7.13;;;24.60;99.90;;;;;;6252640;28;20228;-61
2022/08/25 06:21:26;;;;;;;9.83;6.80;;;25.00;99.90;;;;;;6252298;28;20579;-62
2022/08/25 06:24:30;;;;;;;9.70;7.33;;;25.10;99.90;;;;;;6251853;28;20538;-63
2022/08/25 06:27:33;;;;;;;8.03;7.23;;;25.10;99.90;;;;;;6251831;28;20231;-62
2022/08/25 06:30:39;;;;;;;12.73;7.67;;;25.10;99.90;;;;;;6252052;28;20228;-62
2022/08/25 06:33:42;;;;;;;8.10;7.30;;;25.30;99.90;;;;;;6251528;28;20228;-62
2022/08/25 06:36:46;;;;;;;13.77;7.20;;;25.50;99.70;;;;;;6251370;28;20540;-62
2022/08/25 06:39:51;;;;;;;8.80;8.00;;;25.60;99.10;;;;;;6251631;28;20263;-63
2022/08/25 06:42:54;;;;;;;11.30;8.90;;;25.70;99.00;;;;;;6251259;28;20281;-62
2022/08/25 06:45:59;;;;;;;16.93;8.60;;;26.50;98.40;;;;;;6251510;28;20224;-62
2022/08/25 06:49:02;;;;;;;17.50;8.00;;;27.40;95.80;;;;;;6251641;28;20228;-62
2022/08/25 06:52:05;;;;;;;20.93;11.17;;;27.20;94.80;;;;;;6251844;28;20239;-62
2022/08/25 06:55:09;;;;;;;8.67;8.00;;;27.00;95.00;;;;;;6251421;28;20245;-63
2022/08/25 06:58:12;;;;;;;8.67;7.87;;;26.80;95.20;;;;;;6251453;28;20672;-62
2022/08/25 07:01:20;;;;;;;8.20;7.37;;;26.50;95.50;;;;;;6251578;28;20618;-62
2022/08/25 07:04:24;;;;;;;8.53;7.33;;;27.20;95.80;;;;;;6246766;28;20193;-62
2022/08/25 07:07:27;;;;;;;8.90;8.20;;;29.00;93.10;;;;;;6251388;28;20277;-62
2022/08/25 07:10:46;;;;;;;8.00;7.40;;;30.10;89.90;;;;;;6251426;28;20232;-62
2022/08/25 07:13:50;;;;;;;9.47;8.47;;;29.80;88.40;;;;;;6250831;28;20231;-63
2022/08/25 07:16:55;;;;;;;9.77;8.87;;;29.60;87.90;;;;;;6250811;28;20246;-61
2022/08/25 07:19:58;;;;;;;10.53;8.50;;;29.20;89.10;;;;;;6250867;28;20232;-62
2022/08/25 07:23:01;;;;;;;9.90;8.90;;;28.90;89.60;;;;;;6250674;28;20685;-63
2022/08/25 07:26:10;;;;;;;10.10;9.10;;;28.60;90.20;;;;;;6251162;28;20227;-62
2022/08/25 07:29:37;;;;;;;9.60;8.80;;;28.10;90.90;;;;;;6251048;28;20242;-62
2022/08/25 07:32:46;;;;;;;12.60;10.60;;;27.50;92.00;;;;;;6250749;28;20639;-62
2022/08/25 07:35:57;;;;;;;11.27;10.13;;;27.30;92.80;;;;;;6250562;28;20323;-62
2022/08/25 07:39:03;;;;;;;12.37;9.50;;;27.00;93.30;;;;;;6250346;28;20239;-61
2022/08/25 07:42:07;;;;;;;11.90;10.70;;;26.80;94.00;;;;;;6250411;28;20231;-61
2022/08/25 07:45:15;;;;;;;11.50;10.30;;;26.60;94.60;;;;;;6250409;28;20243;-61
2022/08/25 07:48:24;;;;;;;11.57;10.37;;;26.40;95.00;;;;;;6250439;28;20286;-61
2022/08/25 07:51:27;;;;;;;13.43;10.07;;;26.40;95.40;;;;;;6250430;28;20567;-61
2022/08/25 07:54:31;;;;;;;12.47;10.60;;;25.90;96.40;;;;;;6249291;28;20356;-62
2022/08/25 07:57:39;;;;;;;12.90;8.87;;;25.80;96.70;;;;;;6250027;28;20228;-61
2022/08/25 08:00:42;;;;;;;14.40;9.00;;;25.70;96.90;;;;;;6250046;28;20238;-62
2022/08/25 08:03:47;;;;;;;11.67;9.70;;;25.50;97.60;;;;;;6249671;28;20227;-62
2022/08/25 08:06:53;;;;;;;13.20;10.53;;;25.40;98.10;;;;;;6256497;28;20219;-65
2022/08/25 08:09:56;;;;;;;11.53;10.50;;;25.30;98.50;;;;;;6250589;28;20250;-64
2022/08/25 08:13:19;;;;;;;12.30;11.10;;;25.20;98.80;;;;;;6255206;28;20212;-65
2022/08/25 08:16:24;;;;;;;12.30;11.20;;;25.10;99.40;;;;;;6249516;28;20240;-65
2022/08/25 08:19:29;;;;;;;12.00;10.47;;;24.90;99.80;;;;;;6250376;28;20578;-65
2022/08/25 08:22:32;;;;;;;14.73;10.47;;;24.80;99.90;;;;;;6250447;28;20224;-64
2022/08/25 08:25:35;;;;;;;11.77;10.57;;;24.60;99.90;;;;;;6249840;28;20571;-65
2022/08/25 08:28:39;;;;;;;16.93;10.90;;;24.50;99.90;;;;;;6249580;28;20231;-65
2022/08/25 08:31:42;;;;;;;11.10;10.00;;;24.60;99.90;;;;;;6249618;28;20687;-62
2022/08/25 08:34:52;;;;;;;12.47;11.20;;;24.60;99.90;;;;;;6249780;28;20224;-64
2022/08/25 08:37:55;;;;;;;11.53;10.30;;;24.70;99.90;;;;;;6249387;28;20239;-64
2022/08/25 08:44:36;;;;;;;12.53;11.13;;;24.90;99.90;;;;;;6250122;28;20232;-64
2022/08/25 08:47:51;;;;;;;12.53;11.23;;;25.10;99.90;;;;;;6250826;28;20224;-65
2022/08/25 08:51:04;;;;;;;12.33;10.70;;;25.30;99.90;;;;;;6250121;28;20228;-64
2022/08/25 08:54:17;;;;;;;12.20;11.00;;;25.40;99.90;;;;;;6249650;28;20231;-65
2022/08/25 08:57:25;;;;;;;11.33;10.23;;;25.40;99.90;;;;;;6249346;28;20240;-63
2022/08/25 09:00:30;;;;;;;16.33;10.73;;;25.50;99.90;;;;;;6244978;28;20418;-62
2022/08/25 09:03:38;;;;;;;12.30;11.10;;;25.60;99.90;;;;;;6247764;28;20664;-63
2022/08/25 09:06:46;;;;;;;13.53;11.90;;;25.70;99.90;;;;;;6250124;28;20719;-63
2022/08/25 09:09:50;;;;;;;13.77;12.27;;;25.70;99.90;;;;;;6252535;28;20238;-64
2022/08/25 09:13:00;;;;;;;15.33;11.70;;;25.90;99.80;;;;;;6252265;28;20223;-64
2022/08/25 09:20:14;;;;;;;12.13;10.60;;;25.70;99.80;;;;;;6276933;28;20673;-64
2022/08/25 09:23:34;;;;;;;13.20;11.80;;;25.70;99.80;;;;;;6226097;28;20331;-62
2022/08/25 09:26:44;;;;;;;12.33;10.93;;;25.80;99.80;;;;;;6276651;28;20651;-63
2022/08/25 09:29:59;;;;;;;14.17;11.97;;;25.80;99.80;;;;;;6277220;28;20232;-63
2022/08/25 09:33:03;;;;;;;15.27;11.30;;;25.70;99.80;;;;;;6278257;28;20238;-62
2022/08/25 09:36:07;;;;;;;16.63;11.37;;;25.70;99.80;;;;;;6277986;28;20231;-64
2022/08/25 09:39:12;;;;;;;13.37;10.90;;;25.50;99.90;;;;;;6275474;28;20300;-64
2022/08/25 09:42:18;;;;;;;13.10;11.73;;;25.50;99.90;;;;;;6253355;28;20232;-63
2022/08/25 09:45:37;;;;;;;14.87;12.17;;;25.60;99.90;;;;;;6254462;28;20240;-64
2022/08/25 09:48:47;;;;;;;13.90;12.57;;;25.60;99.90;;;;;;6249176;28;20224;-65
2022/08/25 09:52:18;;;;;;;13.67;12.27;;;25.60;99.90;;;;;;6251340;28;20738;-66
2022/08/25 09:55:40;;;;;;;12.47;11.17;;;25.70;99.80;;;;;;6251145;28;20327;-66
2022/08/25 09:58:44;;;;;;;12.33;11.03;;;25.80;99.80;;;;;;6251574;28;20228;-66
2022/08/25 10:01:49;;;;;;;13.40;10.80;;;25.80;99.70;;;;;;6251125;28;20228;-66
2022/08/25 10:04:53;;;;;;;12.57;11.27;;;25.80;99.80;;;;;;6250873;28;20242;-67
2022/08/25 10:07:58;;;;;;;14.57;12.87;;;25.90;99.80;;;;;;6251097;28;20245;-65
2022/08/25 10:11:07;;;;;;;14.53;12.10;;;25.90;99.60;;;;;;6251247;28;20251;-66
2022/08/25 10:14:19;;;;;;;14.43;12.77;;;26.00;99.70;;;;;;6261414;28;20249;-66
2022/08/25 10:17:26;;;;;;;12.87;11.63;;;26.00;99.70;;;;;;6265169;28;20235;-66
2022/08/25 10:20:32;;;;;;;14.27;12.37;;;26.00;99.70;;;;;;6275746;28;20314;-66
2022/08/25 10:23:40;;;;;;;12.93;11.40;;;26.10;99.40;;;;;;6275209;28;20250;-63
2022/08/25 10:26:58;;;;;;;14.97;13.07;;;26.30;99.20;;;;;;6275139;28;20656;-67
2022/08/25 10:30:11;;;;;;;12.40;11.10;;;26.60;98.80;;;;;;6275503;28;20223;-63
2022/08/25 10:33:27;;;;;;;13.00;10.83;;;26.90;98.10;;;;;;6275631;28;20233;-63
2022/08/25 10:36:41;;;;;;;13.00;11.70;;;27.10;97.40;;;;;;6275025;28;20246;-66
2022/08/25 10:40:03;;;;;;;12.27;10.90;;;27.20;96.20;;;;;;6275079;28;20254;-66
2022/08/25 10:43:21;;;;;;;14.00;12.20;;;27.80;95.80;;;;;;6274650;28;20789;-67
2022/08/25 10:46:36;;;;;;;13.33;12.03;;;28.60;95.80;;;;;;6274600;28;20227;-67
2022/08/25 10:49:47;;;;;;;12.87;11.57;;;29.30;94.30;;;;;;6274990;28;20223;-67
2022/08/25 10:53:06;;;;;;;12.90;9.80;;;30.20;92.70;;;;;;6274354;28;20226;-67
2022/08/25 10:56:17;;;;;;;12.07;10.93;;;31.00;90.80;;;;;;6274613;28;20239;-67
2022/08/25 10:59:45;;;;;;;11.38;10.18;;;31.10;86.00;;;;;;6274502;28;20244;-67
2022/08/25 11:03:18;;;;;;;11.05;10.15;;;30.80;85.20;;;;;;6274385;28;20546;-66
2022/08/25 11:06:25;;;;;;;11.13;10.05;;;30.40;85.90;;;;;;6259045;28;20232;-64
2022/08/25 11:09:34;;;;;;;11.73;10.57;;;30.30;85.70;;;;;;6248938;28;20235;-63
2022/08/25 11:12:43;;;;;;;11.50;10.35;;;30.20;84.30;;;;;;6249316;28;20224;-63
2022/08/25 11:15:53;;;;;;;11.93;10.02;;;30.00;85.60;;;;;;6272824;28;20296;-64
2022/08/25 11:19:22;;;;;;;14.77;9.32;;;30.20;84.10;;;;;;6268580;28;20242;-67
2022/08/25 11:22:32;;;;;;;10.27;9.27;;;30.20;82.60;;;;;;6273277;28;20191;-65
2022/08/25 11:25:41;;;;;;;11.30;10.00;;;30.00;82.60;;;;;;6273354;28;20235;-66
2022/08/25 11:28:54;;;;;;;13.13;10.05;;;30.10;84.00;;;;;;6273556;28;20231;-65
2022/08/25 11:32:00;;;;;;;12.50;10.90;;;30.40;83.70;;;;;;6261011;28;20538;-66
2022/08/25 11:35:07;;;;;;;11.60;10.02;;;30.60;82.00;;;;;;6248887;28;20227;-66
2022/08/25 11:38:27;;;;;;;10.80;9.80;;;30.70;81.30;;;;;;6248483;28;20314;-66
2022/08/25 11:41:39;;;;;;;12.85;9.85;;;31.00;79.60;;;;;;6248754;28;20227;-67
2022/08/25 11:44:54;;;;;;;11.82;8.88;;;31.20;77.60;;;;;;6249046;28;20236;-67
2022/08/25 11:48:13;;;;;;;15.63;9.80;;;31.10;77.10;;;;;;6248642;28;20696;-66
2022/08/25 11:51:31;;;;;;;13.57;8.88;;;30.90;77.00;;;;;;6248659;28;20227;-66
2022/08/25 11:54:44;;;;;;;13.80;9.45;;;30.60;77.40;;;;;;6246805;28;20398;-66
2022/08/25 11:57:50;;;;;;;11.48;8.55;;;30.50;78.20;;;;;;6247350;28;20944;-67
2022/08/25 12:00:57;;;;;;;11.98;9.27;;;30.70;77.60;;;;;;6247530;28;20305;-67
2022/08/25 12:04:31;;;;;;;10.40;9.35;;;31.00;76.60;;;;;;6247521;28;20705;-67
2022/08/25 12:11:46;;;;;;;10.82;9.70;;;30.60;76.40;;;;;;6248669;28;20311;-66
2022/08/25 12:14:51;;;;;;;12.63;10.00;;;30.20;77.90;;;;;;6264454;28;20242;-66
2022/08/25 12:18:10;;;;;;;10.52;9.35;;;30.30;78.60;;;;;;6273187;28;20235;-66
2022/08/25 12:21:30;;;;;;;15.27;10.93;;;30.90;77.00;;;;;;6272975;28;20675;-66
2022/08/25 12:24:51;;;;;;;11.40;10.27;;;30.80;76.20;;;;;;6272932;28;20231;-66
2022/08/25 12:28:05;;;;;;;11.20;10.07;;;31.10;75.30;;;;;;6272786;28;20681;-66
2022/08/25 12:31:47;;;;;;;9.93;8.98;;;31.20;74.70;;;;;;6272905;28;20297;-66
2022/08/25 12:35:13;;;;;;;12.82;11.45;;;31.10;74.40;;;;;;6272989;28;20231;-66
2022/08/25 12:38:30;;;;;;;11.07;9.93;;;30.90;75.10;;;;;;6272683;28;20227;-66
2022/08/25 12:41:33;;;;;;;14.65;11.25;;;30.80;75.50;;;;;;6275852;28;20227;-66
2022/08/25 12:44:40;;;;;;;10.75;9.40;;;30.80;75.80;;;;;;6277383;28;20547;-66
2022/08/25 12:47:46;;;;;;;13.00;10.88;;;30.90;75.80;;;;;;6277625;28;20227;-66
2022/08/25 12:50:57;;;;;;;12.93;10.88;;;31.20;74.70;;;;;;6277607;28;20541;-66
2022/08/25 12:54:16;;;;;;;12.93;10.48;;;31.40;74.10;;;;;;6277454;28;20725;-66
2022/08/25 12:57:39;;;;;;;14.85;10.85;;;31.40;73.20;;;;;;6276935;28;20281;-66
2022/08/25 13:01:04;;;;;;;11.57;10.45;;;31.40;73.50;;;;;;6277176;28;20239;-66
2022/08/25 13:04:52;;;;;;;13.40;10.55;;;31.50;72.60;;;;;;6276559;28;20342;-67
2022/08/25 13:08:25;;;;;;;10.82;9.32;;;31.70;71.70;;;;;;6219848;28;20246;-66
2022/08/25 13:11:45;;;;;;;11.30;10.20;;;31.70;71.60;;;;;;6252419;28;20264;-66
2022/08/25 13:14:54;;;;;;;12.95;10.50;;;31.50;72.80;;;;;;6268315;28;20242;-66
2022/08/25 13:18:13;;;;;;;13.27;10.30;;;31.50;71.90;;;;;;6277364;28;20227;-66
2022/08/25 13:21:23;;;;;;;9.73;8.73;;;31.30;72.80;;;;;;6276868;28;20232;-66
2022/08/25 13:24:29;;;;;;;12.20;8.50;;;30.90;73.50;;;;;;6276425;28;20239;-66
2022/08/25 13:27:35;;;;;;;10.70;9.73;;;30.90;73.50;;;;;;6276351;28;20223;-66
2022/08/25 13:30:39;;;;;;;10.38;8.45;;;30.90;72.90;;;;;;6272288;28;20567;-68
2022/08/25 13:33:51;;;;;;;13.45;9.25;;;30.90;71.70;;;;;;6276467;28;20575;-66
2022/08/25 13:40:24;;;;;;;9.57;8.07;;;31.20;71.00;;;;;;6276705;28;20242;-66
2022/08/25 13:43:29;;;;;;;10.02;7.95;;;31.10;70.20;;;;;;6277555;28;20278;-66
2022/08/25 13:46:33;;;;;;;8.95;8.05;;;31.20;67.90;;;;;;6276732;28;20238;-66
2022/08/25 13:49:38;;;;;;;8.32;7.40;;;31.30;67.70;;;;;;6276822;28;20296;-67
2022/08/25 13:52:44;;;;;;;11.60;9.13;;;31.40;67.00;;;;;;6274542;28;20219;-67
2022/08/25 13:55:51;;;;;;;12.77;8.88;;;31.40;67.20;;;;;;6276382;28;20219;-67
2022/08/25 13:58:58;;;;;;;12.90;10.98;;;31.40;67.90;;;;;;6275976;28;20249;-66
2022/08/25 14:02:02;;;;;;;11.02;9.93;;;31.10;70.40;;;;;;6276132;28;20682;-66
2022/08/25 14:05:07;;;;;;;15.85;10.48;;;31.00;71.40;;;;;;6275770;28;20231;-67
2022/08/25 14:08:30;;;;;;;14.50;10.05;;;31.10;72.20;;;;;;6253855;28;20579;-66
2022/08/25 14:11:42;;;;;;;11.50;10.13;;;30.80;72.40;;;;;;6250942;28;20240;-66
2022/08/25 14:14:58;;;;;;;16.65;10.52;;;30.70;72.80;;;;;;6265980;28;20253;-65
2022/08/25 14:18:05;;;;;;;13.98;9.43;;;30.70;72.80;;;;;;6262319;28;20228;-65
2022/08/25 14:21:11;;;;;;;10.07;9.18;;;30.40;72.80;;;;;;6237609;28;20251;-66
2022/08/25 14:24:16;;;;;;;9.02;8.07;;;30.10;74.30;;;;;;6230444;28;20224;-65
2022/08/25 14:27:24;;;;;;;12.68;9.48;;;30.10;74.20;;;;;;6225567;28;20228;-66
2022/08/25 14:30:29;;;;;;;9.85;8.55;;;30.10;74.00;;;;;;6225335;28;20246;-66
2022/08/25 14:33:36;;;;;;;10.57;9.02;;;30.10;75.20;;;;;;6226017;28;20239;-66
2022/08/25 14:36:39;;;;;;;12.55;9.80;;;29.90;77.10;;;;;;6227897;28;20228;-66
2022/08/25 14:39:43;;;;;;;11.23;9.00;;;29.80;78.10;;;;;;6250485;28;20243;-68
2022/08/25 14:42:47;;;;;;;11.93;9.90;;;29.50;78.00;;;;;;6250378;28;20267;-67
2022/08/25 14:45:52;;;;;;;14.13;11.60;;;29.30;79.20;;;;;;6250852;28;20227;-66
2022/08/25 14:48:58;;;;;;;14.63;9.50;;;29.40;79.90;;;;;;6251240;28;20313;-67
2022/08/25 14:52:07;;;;;;;11.80;8.80;;;29.40;79.10;;;;;;6251514;28;20228;-67
2022/08/25 14:55:12;;;;;;;14.57;10.37;;;29.40;79.70;;;;;;6251239;28;20236;-66
2022/08/25 14:58:32;;;;;;;11.00;10.00;;;29.30;79.90;;;;;;6251158;28;20299;-67
2022/08/25 15:01:37;;;;;;;12.10;9.83;;;29.50;79.60;;;;;;6230362;28;20228;-68
2022/08/25 15:04:41;;;;;;;11.07;9.60;;;29.40;79.70;;;;;;6226435;28;20228;-67
2022/08/25 15:11:14;;;;;;;12.60;10.32;;;29.70;76.70;;;;;;6248049;28;20221;-67
2022/08/25 15:14:21;;;;;;;16.60;9.80;;;29.80;75.30;;;;;;6257490;28;20687;-66
2022/08/25 15:17:37;;;;;;;12.00;8.57;;;29.70;74.50;;;;;;6265953;28;20298;-66
2022/08/25 15:20:40;;;;;;;10.23;7.77;;;29.50;74.20;;;;;;6240550;28;20250;-66
2022/08/25 15:23:43;;;;;;;9.90;8.90;;;29.40;73.40;;;;;;6241239;28;20216;-66
2022/08/25 15:26:50;;;;;;;12.07;8.40;;;29.30;73.70;;;;;;6231122;28;20232;-66
2022/08/25 15:29:58;;;;;;;9.00;8.17;;;29.30;74.30;;;;;;6233986;28;20212;-66
2022/08/25 15:33:02;;;;;;;10.20;9.23;;;29.30;74.90;;;;;;6237362;28;20552;-66
2022/08/25 15:36:09;;;;;;;10.70;8.70;;;28.90;75.70;;;;;;6237126;28;20234;-66
2022/08/25 15:39:18;;;;;;;10.13;9.10;;;29.00;75.90;;;;;;6217509;28;20239;-66
2022/08/25 15:42:21;;;;;;;9.97;9.07;;;29.10;75.80;;;;;;6226102;28;20242;-66
2022/08/25 15:45:28;;;;;;;10.40;8.47;;;29.10;76.00;;;;;;6225666;28;20251;-66
2022/08/25 15:48:34;;;;;;;9.63;8.67;;;29.20;76.30;;;;;;6225616;28;20235;-66
2022/08/25 15:51:37;;;;;;;11.30;9.43;;;29.30;76.10;;;;;;6242286;28;20232;-66
2022/08/25 15:54:40;;;;;;;9.83;8.63;;;29.40;75.30;;;;;;6237340;28;20549;-66
2022/08/25 15:57:47;;;;;;;11.97;9.97;;;29.40;75.20;;;;;;6231990;28;20235;-66
2022/08/25 16:00:52;;;;;;;10.90;9.90;;;29.40;75.30;;;;;;6232472;28;20232;-66
2022/08/25 16:04:01;;;;;;;10.47;9.37;;;29.40;75.40;;;;;;6238240;28;20315;-67
2022/08/25 16:07:05;;;;;;;11.23;8.73;;;29.40;76.00;;;;;;6237886;28;20305;-67
2022/08/25 16:10:11;;;;;;;10.87;9.77;;;29.40;76.00;;;;;;6242748;28;20227;-66
2022/08/25 16:13:14;;;;;;;10.93;9.87;;;29.20;76.70;;;;;;6242882;28;20227;-65
2022/08/25 16:16:21;;;;;;;11.57;10.00;;;29.10;78.30;;;;;;6247514;28;20357;-65
2022/08/25 16:19:27;;;;;;;18.30;10.37;;;29.10;78.10;;;;;;6239644;28;20192;-65
2022/08/25 16:22:30;;;;;;;11.37;10.27;;;29.00;78.70;;;;;;6244443;28;20219;-65
2022/08/25 16:25:33;;;;;;;10.70;9.60;;;28.80;80.40;;;;;;6240618;28;20227;-64
2022/08/25 16:28:39;;;;;;;12.97;10.50;;;28.50;80.60;;;;;;6237654;28;20232;-64